Time;durP1;ratioP1;P1;durP2;ratioP2;P2;SDS_P1;SDS_P2;PMS_P1;PMS_P2;Temp;Humidity;BMP_temperature;BMP_pressure;BME280_temperature;BME280_humidity;BME280_pressure;Samples;Min_cycle;Max_cycle;Signal;HPM_P1;HPM_P2
2023/07/20 00:02:24;;;;;;;11.98;5.18;;;28.10;96.70;;;;;;5087324;28;20511;-79
2023/07/20 00:04:52;;;;;;;10.68;5.07;;;28.00;96.70;;;;;;5093964;28;20538;-81
2023/07/20 00:07:20;;;;;;;9.30;5.43;;;28.00;96.70;;;;;;5103661;27;20048;-82
2023/07/20 00:09:48;;;;;;;11.02;4.82;;;28.10;96.70;;;;;;5094012;28;20140;-81
2023/07/20 00:12:16;;;;;;;12.75;5.25;;;28.20;96.70;;;;;;5095194;28;20067;-81
2023/07/20 00:14:45;;;;;;;11.25;4.93;;;28.20;96.70;;;;;;5103135;28;20500;-81
2023/07/20 00:17:13;;;;;;;10.50;5.28;;;28.30;96.70;;;;;;5086387;28;20104;-81
2023/07/20 00:19:41;;;;;;;13.15;5.45;;;28.30;96.70;;;;;;5097668;28;20508;-80
2023/07/20 00:22:09;;;;;;;12.52;4.85;;;28.20;96.70;;;;;;5093319;28;20501;-80
2023/07/20 00:24:37;;;;;;;11.10;5.07;;;28.20;96.70;;;;;;5084911;28;20040;-80
2023/07/20 00:27:05;;;;;;;12.45;5.47;;;28.10;96.70;;;;;;5102665;28;20048;-81
2023/07/20 00:29:33;;;;;;;13.00;5.82;;;28.10;96.70;;;;;;5102377;28;20052;-81
2023/07/20 00:32:05;;;;;;;15.38;5.25;;;28.10;96.70;;;;;;5101699;27;20044;-81
2023/07/20 00:34:33;;;;;;;10.52;4.72;;;28.10;96.70;;;;;;5095274;28;20558;-81
2023/07/20 00:37:01;;;;;;;11.70;5.13;;;28.00;96.70;;;;;;5085226;28;20046;-80
2023/07/20 00:39:29;;;;;;;10.10;4.72;;;28.00;96.70;;;;;;5120599;27;20047;-81
2023/07/20 00:41:57;;;;;;;8.90;5.10;;;28.00;96.70;;;;;;5111820;27;20036;-79
2023/07/20 00:44:25;;;;;;;11.52;5.00;;;28.00;96.70;;;;;;5099462;28;20044;-80
2023/07/20 00:46:53;;;;;;;12.65;5.63;;;27.90;96.70;;;;;;5090977;28;20519;-81
2023/07/20 00:49:23;;;;;;;12.13;5.85;;;28.00;96.70;;;;;;5087952;28;20044;-81
2023/07/20 00:51:51;;;;;;;13.85;5.55;;;27.90;96.70;;;;;;5102801;27;20044;-80
2023/07/20 00:54:19;;;;;;;9.82;5.15;;;27.90;96.70;;;;;;5093184;28;20047;-81
2023/07/20 00:56:47;;;;;;;9.48;4.93;;;27.90;96.70;;;;;;5101309;28;20055;-82
2023/07/20 00:59:15;;;;;;;12.43;5.32;;;28.00;96.70;;;;;;5100506;27;20385;-80
2023/07/20 01:01:43;;;;;;;10.15;5.47;;;28.00;96.70;;;;;;5087315;28;20036;-80
2023/07/20 01:04:11;;;;;;;11.02;4.78;;;28.00;96.70;;;;;;5083838;28;20074;-81
2023/07/20 01:06:49;;;;;;;11.25;4.90;;;27.90;96.70;;;;;;5110467;27;20063;-81
2023/07/20 01:09:20;;;;;;;10.35;4.78;;;27.80;96.70;;;;;;5078452;28;20056;-81
2023/07/20 01:11:55;;;;;;;13.68;5.70;;;27.90;96.70;;;;;;5101423;28;20048;-81
2023/07/20 01:14:25;;;;;;;10.48;5.22;;;27.90;96.70;;;;;;5092561;28;20054;-81
2023/07/20 01:16:53;;;;;;;15.10;5.40;;;27.90;96.70;;;;;;5113347;27;20059;-81
2023/07/20 01:19:21;;;;;;;12.88;5.43;;;27.90;96.70;;;;;;5101680;27;20039;-81
2023/07/20 01:21:57;;;;;;;9.05;4.60;;;28.00;96.70;;;;;;5100844;27;20067;-80
2023/07/20 01:24:59;;;;;;;10.15;5.05;;;28.00;96.70;;;;;;5101043;28;20192;-81
2023/07/20 01:28:00;;;;;;;9.35;5.07;;;28.00;96.70;;;;;;5087357;28;20040;-81
2023/07/20 01:30:50;;;;;;;9.43;5.68;;;28.00;96.70;;;;;;5091521;28;20055;-81
2023/07/20 01:33:21;;;;;;;11.10;5.32;;;27.90;96.70;;;;;;5086927;28;20767;-80
2023/07/20 01:35:54;;;;;;;12.43;4.80;;;27.80;96.70;;;;;;5083650;28;20055;-82
2023/07/20 01:38:23;;;;;;;9.82;4.50;;;27.70;96.70;;;;;;5085469;28;20042;-81
2023/07/20 01:40:52;;;;;;;9.32;4.72;;;27.70;96.70;;;;;;5092789;28;20467;-81
2023/07/20 01:43:20;;;;;;;10.10;5.30;;;27.70;96.70;;;;;;5088754;28;20046;-80
2023/07/20 01:45:48;;;;;;;11.60;4.57;;;27.80;96.70;;;;;;5106696;28;20044;-81
2023/07/20 01:48:16;;;;;;;8.75;4.45;;;27.70;96.70;;;;;;5100560;28;20040;-81
2023/07/20 01:50:46;;;;;;;10.70;5.13;;;27.70;96.70;;;;;;5093621;28;20044;-81
2023/07/20 01:53:15;;;;;;;12.05;4.80;;;27.60;96.70;;;;;;5110668;28;20043;-82
2023/07/20 01:55:43;;;;;;;10.10;4.85;;;27.50;96.70;;;;;;5093930;28;20673;-81
2023/07/20 01:58:12;;;;;;;10.20;5.07;;;27.60;96.70;;;;;;5086715;28;20047;-81
2023/07/20 02:00:40;;;;;;;11.65;5.07;;;27.60;96.70;;;;;;5101236;28;20147;-81
2023/07/20 02:03:08;;;;;;;8.45;4.50;;;27.70;96.70;;;;;;5074187;28;20497;-81
2023/07/20 02:05:36;;;;;;;7.40;4.45;;;27.60;96.70;;;;;;5108800;28;20066;-82
2023/07/20 02:08:05;;;;;;;7.53;4.63;;;27.60;96.70;;;;;;5092263;28;20052;-81
2023/07/20 02:10:33;;;;;;;13.02;5.05;;;27.60;96.70;;;;;;5092549;28;20052;-81
2023/07/20 02:13:01;;;;;;;9.18;4.47;;;27.60;96.70;;;;;;5105380;28;20405;-81
2023/07/20 02:15:29;;;;;;;12.38;5.43;;;27.50;96.70;;;;;;5100083;28;20601;-80
2023/07/20 02:17:57;;;;;;;7.22;4.65;;;27.50;96.70;;;;;;5111287;28;20055;-81
2023/07/20 02:20:25;;;;;;;7.47;4.70;;;27.50;96.70;;;;;;5100090;28;20044;-81
2023/07/20 02:22:53;;;;;;;13.30;4.57;;;27.40;96.70;;;;;;5096173;28;20054;-82
2023/07/20 02:25:22;;;;;;;10.15;5.05;;;27.40;96.70;;;;;;5100892;28;20109;-81
2023/07/20 02:27:50;;;;;;;10.75;5.25;;;27.40;96.70;;;;;;5098304;28;20043;-80
2023/07/20 02:30:18;;;;;;;10.40;4.88;;;27.40;96.70;;;;;;5115731;27;20036;-80
2023/07/20 02:32:48;;;;;;;7.78;4.45;;;27.30;96.70;;;;;;5089126;28;20040;-80
2023/07/20 02:35:16;;;;;;;8.20;5.15;;;27.30;96.70;;;;;;5079053;28;20056;-81
2023/07/20 02:37:45;;;;;;;12.40;5.05;;;27.30;96.70;;;;;;5097658;28;20044;-80
2023/07/20 02:40:13;;;;;;;10.20;5.40;;;27.20;96.70;;;;;;5110073;27;20442;-81
2023/07/20 02:42:43;;;;;;;11.23;5.18;;;27.20;96.70;;;;;;5097953;28;20071;-82
2023/07/20 02:45:10;;;;;;;11.65;5.53;;;27.20;96.70;;;;;;5105521;27;20048;-81
2023/07/20 02:47:38;;;;;;;10.27;5.28;;;27.20;96.70;;;;;;5088652;28;20115;-81
2023/07/20 02:50:07;;;;;;;9.32;4.78;;;27.20;96.70;;;;;;5091294;28;20137;-81
2023/07/20 02:52:35;;;;;;;11.18;4.75;;;27.20;96.70;;;;;;5097972;28;20505;-81
2023/07/20 02:55:04;;;;;;;13.35;5.28;;;27.20;96.70;;;;;;5087683;28;20495;-80
2023/07/20 02:57:32;;;;;;;11.20;5.47;;;27.20;96.70;;;;;;5093294;28;20101;-82
2023/07/20 03:00:01;;;;;;;14.25;5.20;;;27.20;96.70;;;;;;5086613;28;20765;-80
2023/07/20 03:02:30;;;;;;;10.63;5.03;;;27.10;96.70;;;;;;5100421;27;20055;-81
2023/07/20 03:04:58;;;;;;;13.07;4.88;;;27.00;96.70;;;;;;5094631;28;20419;-82
2023/07/20 03:07:28;;;;;;;13.07;5.00;;;27.00;96.70;;;;;;5086990;28;20135;-81
2023/07/20 03:09:56;;;;;;;10.60;4.93;;;27.00;96.70;;;;;;5109084;27;20078;-81
2023/07/20 03:12:25;;;;;;;11.95;4.93;;;27.00;96.70;;;;;;5097677;27;20044;-83
2023/07/20 03:14:54;;;;;;;13.43;5.80;;;27.00;96.70;;;;;;5078843;28;20473;-81
2023/07/20 03:17:23;;;;;;;10.02;5.25;;;27.00;96.70;;;;;;5088326;28;20082;-82
2023/07/20 03:19:51;;;;;;;9.98;4.65;;;27.00;96.70;;;;;;5102901;27;20059;-80
2023/07/20 03:22:19;;;;;;;7.97;4.68;;;27.10;96.70;;;;;;5108960;27;20044;-81
2023/07/20 03:24:47;;;;;;;12.00;5.50;;;27.00;96.70;;;;;;5097402;28;20386;-81
2023/07/20 03:27:15;;;;;;;8.60;5.05;;;27.10;96.70;;;;;;5106763;27;20491;-81
2023/07/20 03:29:44;;;;;;;11.77;5.88;;;27.00;96.70;;;;;;5091548;28;20047;-82
2023/07/20 03:32:11;;;;;;;11.57;4.97;;;27.00;96.70;;;;;;5099406;28;20504;-81
2023/07/20 03:34:41;;;;;;;11.57;5.05;;;26.90;96.70;;;;;;5082443;28;20079;-80
2023/07/20 03:37:09;;;;;;;14.32;5.05;;;27.00;96.70;;;;;;5115115;27;20513;-82
2023/07/20 03:39:36;;;;;;;13.10;5.43;;;27.10;96.70;;;;;;5094099;28;20043;-81
2023/07/20 03:42:06;;;;;;;14.75;5.25;;;27.10;96.70;;;;;;5094625;28;20055;-81
2023/07/20 03:44:34;;;;;;;14.65;5.88;;;27.10;96.70;;;;;;5087431;28;20071;-81
2023/07/20 03:47:04;;;;;;;12.48;5.63;;;27.10;96.70;;;;;;5092026;28;20115;-81
2023/07/20 03:49:32;;;;;;;13.07;5.30;;;27.10;96.70;;;;;;5104877;28;20703;-81
2023/07/20 03:52:03;;;;;;;16.80;5.50;;;27.00;96.70;;;;;;5090901;28;20118;-81
2023/07/20 03:54:31;;;;;;;11.95;5.50;;;27.00;96.70;;;;;;5094625;28;20047;-81
2023/07/20 03:57:00;;;;;;;13.23;5.45;;;27.00;96.70;;;;;;5104783;27;20451;-81
2023/07/20 03:59:28;;;;;;;14.95;5.28;;;27.00;96.70;;;;;;5108375;27;20067;-82
2023/07/20 04:01:56;;;;;;;8.50;5.10;;;27.10;96.70;;;;;;5092282;28;20131;-81
2023/07/20 04:04:24;;;;;;;10.35;5.35;;;27.10;96.70;;;;;;5120576;27;20047;-81
2023/07/20 04:06:52;;;;;;;9.80;5.28;;;27.00;96.70;;;;;;5087028;28;20035;-82
2023/07/20 04:09:21;;;;;;;11.98;6.13;;;26.90;96.70;;;;;;5088016;28;20036;-81
2023/07/20 04:11:49;;;;;;;10.57;5.93;;;26.90;96.70;;;;;;5092333;28;20063;-83
2023/07/20 04:14:17;;;;;;;10.52;4.85;;;26.70;96.70;;;;;;5106609;27;20059;-81
2023/07/20 04:16:46;;;;;;;12.25;5.70;;;26.70;96.70;;;;;;5090359;28;20050;-81
2023/07/20 04:19:14;;;;;;;11.27;5.20;;;26.70;96.70;;;;;;5103291;27;20084;-82
2023/07/20 04:21:42;;;;;;;14.52;6.13;;;26.60;96.70;;;;;;5094415;28;20044;-82
2023/07/20 04:24:10;;;;;;;12.55;5.30;;;26.70;96.70;;;;;;5095065;28;20052;-82
2023/07/20 04:26:40;;;;;;;14.98;5.60;;;26.70;96.70;;;;;;5082303;28;20055;-82
2023/07/20 04:29:07;;;;;;;11.00;5.30;;;26.70;96.70;;;;;;5094838;28;20047;-81
2023/07/20 04:31:41;;;;;;;12.48;5.20;;;26.80;96.70;;;;;;5088431;28;20059;-82
2023/07/20 04:34:09;;;;;;;14.73;5.25;;;26.90;96.70;;;;;;5110918;27;20055;-81
2023/07/20 04:36:37;;;;;;;8.88;4.55;;;27.00;96.70;;;;;;5094381;28;20044;-82
2023/07/20 04:39:08;;;;;;;10.95;5.38;;;26.90;96.70;;;;;;5102530;28;20138;-81
2023/07/20 04:41:50;;;;;;;10.77;5.13;;;26.80;96.70;;;;;;5091158;28;20048;-81
2023/07/20 04:44:18;;;;;;;12.45;5.13;;;26.80;96.70;;;;;;5084277;28;20505;-83
2023/07/20 04:46:46;;;;;;;12.95;5.35;;;26.90;96.70;;;;;;5094222;28;20397;-82
2023/07/20 04:49:15;;;;;;;10.32;4.82;;;26.90;96.70;;;;;;5078540;28;20052;-82
2023/07/20 04:51:45;;;;;;;10.45;5.22;;;26.90;96.70;;;;;;5094999;28;20051;-82
2023/07/20 04:54:13;;;;;;;13.90;4.78;;;26.80;96.70;;;;;;5103095;27;20069;-82
2023/07/20 04:56:42;;;;;;;9.00;4.50;;;26.80;96.70;;;;;;5085663;28;20419;-82
2023/07/20 04:59:13;;;;;;;10.65;5.38;;;26.80;96.70;;;;;;5090098;28;20506;-81
2023/07/20 05:01:41;;;;;;;15.00;5.28;;;26.90;96.70;;;;;;5085385;28;20040;-83
2023/07/20 05:04:09;;;;;;;10.85;5.00;;;26.90;96.70;;;;;;5094314;28;20040;-82
2023/07/20 05:06:38;;;;;;;9.88;5.20;;;26.90;96.70;;;;;;5113853;27;20080;-82
2023/07/20 05:09:07;;;;;;;9.82;4.78;;;26.90;96.70;;;;;;5104299;27;20054;-82
2023/07/20 05:11:35;;;;;;;12.30;5.88;;;26.90;96.70;;;;;;5111843;27;20048;-82
2023/07/20 05:14:03;;;;;;;13.95;5.10;;;27.00;96.70;;;;;;5093591;28;20131;-83
2023/07/20 05:16:32;;;;;;;11.77;5.80;;;27.10;96.70;;;;;;5090246;28;20134;-83
2023/07/20 05:19:04;;;;;;;10.52;5.20;;;27.10;96.70;;;;;;5080471;28;20047;-82
2023/07/20 05:21:33;;;;;;;11.85;5.30;;;27.10;96.70;;;;;;5085833;28;20052;-82
2023/07/20 05:24:01;;;;;;;15.02;5.45;;;27.20;96.70;;;;;;5110873;27;20139;-81
2023/07/20 05:26:29;;;;;;;9.20;4.93;;;27.30;96.70;;;;;;5093875;27;20147;-82
2023/07/20 05:28:57;;;;;;;12.40;4.60;;;27.40;96.70;;;;;;5102463;27;20541;-82
2023/07/20 05:31:26;;;;;;;13.98;5.32;;;27.30;96.70;;;;;;5102232;28;20717;-82
2023/07/20 05:33:55;;;;;;;14.05;5.43;;;27.20;96.70;;;;;;5101655;28;20055;-82
2023/07/20 05:36:24;;;;;;;13.70;6.00;;;27.20;96.70;;;;;;5087564;28;20316;-83
2023/07/20 05:38:52;;;;;;;8.20;4.63;;;27.20;96.70;;;;;;5079907;28;20070;-82
2023/07/20 05:41:22;;;;;;;9.48;5.55;;;27.30;96.70;;;;;;5089606;28;20626;-82
2023/07/20 05:43:50;;;;;;;9.75;5.00;;;27.40;96.70;;;;;;5089430;28;20044;-82
2023/07/20 05:46:18;;;;;;;14.25;5.50;;;27.30;96.70;;;;;;5083791;28;20048;-81
2023/07/20 05:48:46;;;;;;;13.20;5.22;;;27.30;96.70;;;;;;5086855;28;20043;-83
2023/07/20 05:51:16;;;;;;;10.48;4.97;;;27.40;96.70;;;;;;5093955;28;20062;-83
2023/07/20 05:53:43;;;;;;;13.68;5.20;;;27.40;96.70;;;;;;5085131;28;20268;-82
2023/07/20 05:56:14;;;;;;;13.45;5.13;;;27.40;96.70;;;;;;5096037;28;20684;-82
2023/07/20 05:58:42;;;;;;;13.20;5.40;;;27.50;96.70;;;;;;5087722;28;20079;-83
2023/07/20 06:01:10;;;;;;;10.00;4.95;;;27.60;96.70;;;;;;5089340;28;20120;-80
2023/07/20 06:03:38;;;;;;;14.38;4.63;;;27.70;96.70;;;;;;5104999;27;20044;-83
2023/07/20 06:06:06;;;;;;;9.55;5.00;;;27.60;96.70;;;;;;5099542;28;20467;-81
2023/07/20 06:08:36;;;;;;;16.00;5.57;;;27.60;96.70;;;;;;5109010;27;20097;-85
2023/07/20 06:11:04;;;;;;;11.30;5.03;;;27.60;96.70;;;;;;5089797;28;20689;-82
2023/07/20 06:13:32;;;;;;;13.52;5.75;;;27.70;96.70;;;;;;5119324;27;20097;-81
2023/07/20 06:16:00;;;;;;;9.30;4.88;;;27.70;96.70;;;;;;5109175;27;20101;-84
2023/07/20 06:18:28;;;;;;;13.02;5.68;;;27.80;96.70;;;;;;5120676;27;20051;-81
2023/07/20 06:20:56;;;;;;;13.18;5.25;;;27.80;96.70;;;;;;5124018;27;20127;-81
2023/07/20 06:23:24;;;;;;;11.30;5.60;;;27.80;96.70;;;;;;5121469;27;20047;-81
2023/07/20 06:25:54;;;;;;;10.18;5.53;;;27.80;96.70;;;;;;5090123;28;20643;-80
2023/07/20 06:28:23;;;;;;;13.32;5.50;;;27.90;96.70;;;;;;5091131;28;20048;-81
2023/07/20 06:30:51;;;;;;;13.25;5.60;;;27.90;96.70;;;;;;5088046;28;20093;-81
2023/07/20 06:33:20;;;;;;;11.82;5.30;;;28.00;96.70;;;;;;5099293;28;20039;-81
2023/07/20 06:35:48;;;;;;;12.73;5.10;;;28.00;96.70;;;;;;5113339;27;20040;-81
2023/07/20 06:38:16;;;;;;;15.77;6.22;;;28.10;96.70;;;;;;5117461;27;20112;-80
2023/07/20 06:40:47;;;;;;;9.45;5.13;;;28.10;96.70;;;;;;5105158;27;20052;-79
2023/07/20 06:43:16;;;;;;;11.43;5.45;;;28.20;96.70;;;;;;5096104;28;20476;-79
2023/07/20 06:45:55;;;;;;;11.50;5.15;;;28.20;96.70;;;;;;5107375;28;20039;-79
2023/07/20 06:48:23;;;;;;;11.23;5.30;;;28.20;96.70;;;;;;5093401;28;20039;-80
2023/07/20 06:50:51;;;;;;;12.50;5.43;;;28.30;96.70;;;;;;5088349;28;20040;-81
2023/07/20 06:53:19;;;;;;;10.25;5.43;;;28.40;96.70;;;;;;5095579;28;20047;-81
2023/07/20 06:55:47;;;;;;;12.85;5.55;;;28.40;96.70;;;;;;5112368;27;20112;-80
2023/07/20 06:58:18;;;;;;;14.50;5.50;;;28.50;96.70;;;;;;5087141;28;20142;-81
2023/07/20 07:00:46;;;;;;;17.00;5.90;;;28.50;96.70;;;;;;5096171;28;20338;-81
2023/07/20 07:03:14;;;;;;;10.32;5.30;;;28.60;96.70;;;;;;5097120;28;20117;-80
2023/07/20 07:05:43;;;;;;;13.63;5.65;;;28.70;96.70;;;;;;5113002;27;20068;-81
2023/07/20 07:08:11;;;;;;;12.77;6.10;;;28.80;96.70;;;;;;5088558;28;20036;-82
2023/07/20 07:10:39;;;;;;;10.77;6.07;;;28.80;96.70;;;;;;5097413;28;20135;-81
2023/07/20 07:13:07;;;;;;;11.63;5.10;;;28.90;96.70;;;;;;5097342;28;20048;-82
2023/07/20 07:15:37;;;;;;;12.00;6.10;;;28.90;96.70;;;;;;5122593;27;20039;-81
2023/07/20 07:18:06;;;;;;;10.90;5.38;;;29.00;96.70;;;;;;5121245;27;20043;-81
2023/07/20 07:20:33;;;;;;;13.35;5.53;;;29.00;96.70;;;;;;5077220;28;20364;-83
2023/07/20 07:23:02;;;;;;;12.38;5.75;;;29.00;96.70;;;;;;5088857;28;20054;-80
2023/07/20 07:25:30;;;;;;;11.98;5.32;;;29.10;96.70;;;;;;5103672;27;20051;-81
2023/07/20 07:27:58;;;;;;;14.13;5.47;;;29.20;96.70;;;;;;5103784;27;20071;-81
2023/07/20 07:30:26;;;;;;;15.77;6.32;;;29.20;96.70;;;;;;5090853;28;20444;-81
2023/07/20 07:32:55;;;;;;;12.75;5.47;;;29.40;96.70;;;;;;5111766;27;20044;-81
2023/07/20 07:35:23;;;;;;;11.63;5.07;;;29.40;96.70;;;;;;5112136;27;20097;-80
2023/07/20 07:37:51;;;;;;;18.42;6.88;;;29.50;96.70;;;;;;5098842;28;20044;-81
2023/07/20 07:40:39;;;;;;;13.43;6.28;;;29.60;96.70;;;;;;5098684;28;20043;-81
2023/07/20 07:43:08;;;;;;;17.08;6.57;;;29.60;96.70;;;;;;5102622;27;20059;-81
2023/07/20 07:45:37;;;;;;;11.63;6.68;;;29.70;96.70;;;;;;5111678;27;20055;-81
2023/07/20 07:48:07;;;;;;;17.73;6.70;;;29.90;96.70;;;;;;5120164;27;20106;-81
2023/07/20 07:50:35;;;;;;;15.88;7.45;;;30.00;96.70;;;;;;5105395;28;20046;-82
2023/07/20 07:53:03;;;;;;;18.20;6.97;;;30.10;96.70;;;;;;5101624;28;20822;-81
2023/07/20 07:55:31;;;;;;;15.98;7.78;;;30.20;96.70;;;;;;5102926;28;20105;-81
2023/07/20 07:57:58;;;;;;;16.17;7.57;;;30.20;96.70;;;;;;5103024;28;20447;-81
2023/07/20 08:00:26;;;;;;;21.20;7.68;;;30.20;96.70;;;;;;5111653;27;20043;-82
2023/07/20 08:02:54;;;;;;;18.80;7.88;;;30.20;96.70;;;;;;5094379;27;20044;-80
2023/07/20 08:05:24;;;;;;;19.17;7.35;;;30.20;96.70;;;;;;5106055;27;20066;-81
2023/07/20 08:07:52;;;;;;;19.98;7.57;;;30.40;96.70;;;;;;5088654;28;20040;-81
2023/07/20 08:10:21;;;;;;;18.63;8.60;;;30.40;96.70;;;;;;5108269;27;20084;-81
2023/07/20 08:12:49;;;;;;;17.10;7.53;;;30.50;96.70;;;;;;5086456;28;20551;-80
2023/07/20 08:15:17;;;;;;;17.75;7.50;;;30.60;96.70;;;;;;5085549;28;20046;-80
2023/07/20 08:17:45;;;;;;;14.90;7.18;;;30.60;96.70;;;;;;5092139;28;20315;-81
2023/07/20 08:20:16;;;;;;;20.27;8.23;;;30.70;96.70;;;;;;5105609;27;20040;-79
2023/07/20 08:22:46;;;;;;;16.00;8.10;;;30.70;96.70;;;;;;5092589;28;20043;-81
2023/07/20 08:25:15;;;;;;;15.38;7.45;;;30.70;96.70;;;;;;5102958;27;20607;-80
2023/07/20 08:27:46;;;;;;;17.52;7.30;;;30.90;96.70;;;;;;5109283;27;20497;-80
2023/07/20 08:30:14;;;;;;;15.02;7.55;;;30.90;96.70;;;;;;5084280;28;20051;-81
2023/07/20 08:32:41;;;;;;;14.30;7.10;;;30.80;96.70;;;;;;5097264;28;20057;-80
2023/07/20 08:35:10;;;;;;;17.98;7.32;;;30.80;96.70;;;;;;5087331;28;20047;-80
2023/07/20 08:37:38;;;;;;;13.98;7.00;;;30.90;96.70;;;;;;5103907;27;20051;-80
2023/07/20 08:40:09;;;;;;;18.23;7.80;;;31.10;96.70;;;;;;5091570;28;20760;-81
2023/07/20 08:42:38;;;;;;;17.15;7.80;;;31.00;96.70;;;;;;5086270;28;20547;-81
2023/07/20 08:45:09;;;;;;;14.95;7.35;;;31.00;96.70;;;;;;5111357;27;20135;-79
2023/07/20 08:47:38;;;;;;;18.13;8.32;;;31.20;96.70;;;;;;5114081;27;20497;-81
2023/07/20 08:50:09;;;;;;;18.00;8.27;;;31.20;96.70;;;;;;5097686;28;20576;-81
2023/07/20 08:52:37;;;;;;;14.02;6.88;;;31.30;96.70;;;;;;5097188;28;20048;-82
2023/07/20 08:55:07;;;;;;;16.25;7.22;;;31.30;96.70;;;;;;5086361;28;20040;-81
2023/07/20 08:57:38;;;;;;;10.45;7.65;;;31.40;96.70;;;;;;5089738;28;20659;-81
2023/07/20 09:00:12;;;;;;;14.45;8.10;;;31.30;96.70;;;;;;5103901;27;20075;-78
2023/07/20 09:02:44;;;;;;;16.55;6.88;;;31.30;96.70;;;;;;5083389;28;20123;-80
2023/07/20 09:05:15;;;;;;;14.15;7.35;;;31.40;96.70;;;;;;5112589;27;20047;-80
2023/07/20 09:07:43;;;;;;;20.15;8.13;;;31.50;96.70;;;;;;5102852;27;20036;-80
2023/07/20 09:10:13;;;;;;;12.98;7.35;;;31.50;96.70;;;;;;5087088;28;20047;-80
2023/07/20 09:12:42;;;;;;;19.52;7.00;;;31.60;96.70;;;;;;5084099;28;20052;-79
2023/07/20 09:15:11;;;;;;;18.27;8.43;;;31.70;96.70;;;;;;5102842;27;20040;-80
2023/07/20 09:17:39;;;;;;;16.33;6.85;;;31.70;96.70;;;;;;5092362;28;20378;-79
2023/07/20 09:20:10;;;;;;;16.20;6.35;;;31.70;96.70;;;;;;5100596;27;20101;-80
2023/07/20 09:22:39;;;;;;;13.05;6.68;;;31.80;96.70;;;;;;5100754;27;20665;-81
2023/07/20 09:25:10;;;;;;;16.00;6.80;;;31.90;96.70;;;;;;5105195;27;20047;-78
2023/07/20 09:27:44;;;;;;;12.23;7.20;;;32.10;96.70;;;;;;5104977;27;20491;-79
2023/07/20 09:30:14;;;;;;;17.33;7.53;;;32.20;96.70;;;;;;5089357;28;20047;-80
2023/07/20 09:32:47;;;;;;;18.13;7.45;;;32.20;96.70;;;;;;5093315;28;20046;-81
2023/07/20 09:35:19;;;;;;;11.32;6.32;;;32.30;96.70;;;;;;5097918;28;20044;-81
2023/07/20 09:37:54;;;;;;;14.43;6.97;;;32.50;96.70;;;;;;5087176;28;20067;-81
2023/07/20 09:40:44;;;;;;;17.42;7.35;;;32.40;96.70;;;;;;5098937;28;20497;-79
2023/07/20 09:43:17;;;;;;;16.67;6.78;;;32.20;96.70;;;;;;5093909;28;20078;-81
2023/07/20 09:45:47;;;;;;;13.75;6.53;;;32.10;96.70;;;;;;5099344;28;20044;-81
2023/07/20 09:48:23;;;;;;;11.77;6.50;;;32.20;96.70;;;;;;5086568;28;20047;-82
2023/07/20 09:50:55;;;;;;;12.30;6.82;;;32.20;96.70;;;;;;5090658;28;20456;-81
2023/07/20 09:53:26;;;;;;;17.13;7.20;;;32.40;96.70;;;;;;5096211;28;20390;-80
2023/07/20 09:55:54;;;;;;;14.07;6.60;;;32.40;96.70;;;;;;5083411;28;20120;-80
2023/07/20 09:58:25;;;;;;;12.05;6.80;;;32.40;96.70;;;;;;5109028;28;20044;-81
2023/07/20 10:00:57;;;;;;;12.73;6.82;;;32.50;96.70;;;;;;5073485;28;20516;-80
2023/07/20 10:03:29;;;;;;;15.93;6.88;;;32.60;96.70;;;;;;5093235;28;20040;-81
2023/07/20 10:06:09;;;;;;;12.35;6.32;;;32.40;96.70;;;;;;5104445;28;20495;-80
2023/07/20 10:08:40;;;;;;;16.23;7.10;;;32.50;96.70;;;;;;5106045;28;20752;-80
2023/07/20 10:11:15;;;;;;;17.02;6.63;;;32.70;96.70;;;;;;5097151;28;20402;-80
2023/07/20 10:13:46;;;;;;;13.52;7.07;;;32.80;96.70;;;;;;5106443;28;20040;-82
2023/07/20 10:16:22;;;;;;;12.73;6.80;;;33.00;96.70;;;;;;5116096;28;20055;-81
2023/07/20 10:18:55;;;;;;;11.80;7.18;;;33.00;96.70;;;;;;5113736;28;20501;-82
2023/07/20 10:21:23;;;;;;;15.15;7.30;;;33.20;96.70;;;;;;5092064;28;20071;-81
2023/07/20 10:23:56;;;;;;;17.00;6.93;;;33.10;96.70;;;;;;5088719;28;20408;-81
2023/07/20 10:26:26;;;;;;;12.77;6.50;;;33.30;96.70;;;;;;5102343;28;20051;-81
2023/07/20 10:28:56;;;;;;;16.60;7.38;;;33.40;96.70;;;;;;5075484;28;20048;-81
2023/07/20 10:31:28;;;;;;;12.02;7.40;;;33.40;96.70;;;;;;5101939;28;20306;-81
2023/07/20 10:33:57;;;;;;;15.95;6.78;;;33.40;96.70;;;;;;5116618;28;20688;-78
2023/07/20 10:36:27;;;;;;;12.60;6.10;;;33.40;96.70;;;;;;5099694;28;20115;-78
2023/07/20 10:38:58;;;;;;;12.32;6.78;;;33.50;96.70;;;;;;5089562;28;20040;-79
2023/07/20 10:41:29;;;;;;;12.57;7.03;;;33.40;96.70;;;;;;5100423;28;20573;-78
2023/07/20 10:44:01;;;;;;;14.50;7.40;;;33.50;96.70;;;;;;5109316;28;20109;-78
2023/07/20 10:46:45;;;;;;;11.23;6.32;;;33.60;96.70;;;;;;5100863;28;20084;-77
2023/07/20 10:49:15;;;;;;;11.85;6.40;;;33.80;96.70;;;;;;5111351;27;20097;-78
2023/07/20 10:51:45;;;;;;;13.63;6.93;;;33.90;96.70;;;;;;5086577;28;20064;-77
2023/07/20 10:54:34;;;;;;;14.60;6.85;;;33.80;96.70;;;;;;5118971;27;20078;-78
2023/07/20 10:57:22;;;;;;;17.65;8.00;;;33.80;96.70;;;;;;5103459;27;20040;-76
2023/07/20 10:59:51;;;;;;;13.60;6.97;;;33.80;96.70;;;;;;5105438;27;20052;-77
2023/07/20 11:02:20;;;;;;;14.65;7.15;;;33.90;96.70;;;;;;5098994;28;20126;-77
2023/07/20 11:04:48;;;;;;;10.00;6.25;;;34.10;96.70;;;;;;5085321;27;20408;-77
2023/07/20 11:07:36;;;;;;;15.05;7.50;;;34.00;96.70;;;;;;5097241;28;20133;-78
2023/07/20 11:10:15;;;;;;;12.73;6.75;;;34.00;96.70;;;;;;5083381;28;20048;-78
2023/07/20 11:13:16;;;;;;;12.38;7.18;;;34.30;96.70;;;;;;5096523;28;20050;-79
2023/07/20 11:15:47;;;;;;;14.52;7.45;;;34.30;96.70;;;;;;5107301;27;20051;-77
2023/07/20 11:18:16;;;;;;;15.32;7.07;;;34.40;96.70;;;;;;5113551;27;20432;-77
2023/07/20 11:20:44;;;;;;;11.50;6.68;;;34.50;96.70;;;;;;5105708;27;20497;-76
2023/07/20 11:23:12;;;;;;;12.90;6.72;;;34.70;96.70;;;;;;5095009;28;20044;-77
2023/07/20 11:25:40;;;;;;;13.90;7.00;;;34.60;96.70;;;;;;5112279;27;20048;-78
2023/07/20 11:28:10;;;;;;;13.23;6.30;;;34.30;96.70;;;;;;5096033;28;20660;-76
2023/07/20 11:30:38;;;;;;;15.18;7.13;;;34.40;96.70;;;;;;5118429;27;20566;-77
2023/07/20 11:33:10;;;;;;;10.25;5.95;;;34.60;96.70;;;;;;5096289;28;20052;-77
2023/07/20 11:35:43;;;;;;;10.35;6.18;;;34.60;96.70;;;;;;5111474;27;20489;-77
2023/07/20 11:38:12;;;;;;;15.95;6.78;;;34.70;96.70;;;;;;5100694;28;20050;-78
2023/07/20 11:40:43;;;;;;;12.68;6.93;;;34.80;96.70;;;;;;5109359;27;20044;-77
2023/07/20 11:43:12;;;;;;;15.95;6.47;;;34.70;96.70;;;;;;5106461;28;20054;-77
2023/07/20 11:45:45;;;;;;;11.80;6.13;;;34.90;96.70;;;;;;5101073;27;20043;-77
2023/07/20 11:48:17;;;;;;;10.43;6.38;;;34.60;96.70;;;;;;5115896;27;20047;-77
2023/07/20 11:50:45;;;;;;;12.77;5.90;;;34.50;96.70;;;;;;5094167;28;20075;-76
2023/07/20 11:53:14;;;;;;;14.27;6.43;;;34.70;96.70;;;;;;5086468;28;20047;-78
2023/07/20 11:55:42;;;;;;;13.70;6.28;;;34.70;96.70;;;;;;5096681;28;20097;-77
2023/07/20 11:58:10;;;;;;;12.77;6.10;;;34.90;96.70;;;;;;5095458;28;20846;-77
2023/07/20 12:00:40;;;;;;;11.43;6.07;;;35.10;96.70;;;;;;5106781;27;20047;-78
2023/07/20 12:03:08;;;;;;;9.88;5.50;;;35.10;96.70;;;;;;5108089;27;20047;-77
2023/07/20 12:05:39;;;;;;;11.60;6.22;;;35.10;96.70;;;;;;5087346;28;20063;-76
2023/07/20 12:08:27;;;;;;;12.40;6.18;;;35.00;96.70;;;;;;5105428;27;20050;-76
2023/07/20 12:10:54;;;;;;;12.07;6.00;;;35.00;96.70;;;;;;5117845;27;20036;-77
2023/07/20 12:13:22;;;;;;;9.95;5.53;;;35.20;96.70;;;;;;5098097;28;20540;-77
2023/07/20 12:15:54;;;;;;;9.32;5.60;;;35.40;96.70;;;;;;5105233;28;20050;-76
2023/07/20 12:18:34;;;;;;;10.68;5.25;;;35.20;96.70;;;;;;5106440;27;20090;-76
2023/07/20 12:21:05;;;;;;;12.02;6.47;;;35.20;96.70;;;;;;5092131;28;20578;-77
2023/07/20 12:23:37;;;;;;;11.48;6.40;;;35.40;96.70;;;;;;5094084;28;20055;-78
2023/07/20 12:26:08;;;;;;;8.73;5.32;;;35.40;96.70;;;;;;5103058;28;20174;-77
2023/07/20 12:28:40;;;;;;;13.10;6.30;;;35.30;96.70;;;;;;5096450;28;20035;-79
2023/07/20 12:31:09;;;;;;;10.18;5.53;;;35.10;96.70;;;;;;5104232;28;20047;-77
2023/07/20 12:33:37;;;;;;;13.98;6.13;;;35.10;96.70;;;;;;5092801;28;20044;-77
2023/07/20 12:36:07;;;;;;;14.20;6.15;;;35.10;96.70;;;;;;5094863;28;20119;-77
2023/07/20 12:38:35;;;;;;;12.07;6.10;;;35.20;96.70;;;;;;5086277;28;20050;-77
2023/07/20 12:41:03;;;;;;;11.23;6.47;;;35.40;96.70;;;;;;5089125;28;20741;-77
2023/07/20 12:43:31;;;;;;;11.95;6.65;;;35.50;96.70;;;;;;5113396;27;20135;-77
2023/07/20 12:45:59;;;;;;;9.95;5.60;;;35.60;96.70;;;;;;5111012;27;20032;-78
2023/07/20 12:48:28;;;;;;;11.60;5.90;;;35.60;96.70;;;;;;5099930;28;20047;-77
2023/07/20 12:50:56;;;;;;;11.73;5.82;;;35.60;96.70;;;;;;5102002;27;20104;-79
2023/07/20 12:53:25;;;;;;;11.50;5.97;;;35.60;96.70;;;;;;5108445;27;20093;-78